sensor_id;sensor_type;location;lat;lon;timestamp;temperature;humidity
15413;DHT22;7805;49.554;7.632;2023-05-07T00:00:18;15.10;99.90
15413;DHT22;7805;49.554;7.632;2023-05-07T00:02:45;15.40;99.90
15413;DHT22;7805;49.554;7.632;2023-05-07T00:05:10;15.40;99.90
15413;DHT22;7805;49.554;7.632;2023-05-07T00:07:36;15.40;99.90
15413;DHT22;7805;49.554;7.632;2023-05-07T00:10:03;15.40;99.90
15413;DHT22;7805;49.554;7.632;2023-05-07T00:12:28;15.40;99.90
15413;DHT22;7805;49.554;7.632;2023-05-07T00:14:57;15.30;99.90
15413;DHT22;7805;49.554;7.632;2023-05-07T00:17:23;15.20;99.90
15413;DHT22;7805;49.554;7.632;2023-05-07T00:19:48;15.20;99.90
15413;DHT22;7805;49.554;7.632;2023-05-07T00:22:14;15.10;99.90
15413;DHT22;7805;49.554;7.632;2023-05-07T00:24:40;15.20;99.90
15413;DHT22;7805;49.554;7.632;2023-05-07T00:27:05;15.20;99.90
15413;DHT22;7805;49.554;7.632;2023-05-07T00:29:31;15.10;99.90
15413;DHT22;7805;49.554;7.632;2023-05-07T00:31:56;15.10;99.90
15413;DHT22;7805;49.554;7.632;2023-05-07T00:34:22;15.10;99.90
15413;DHT22;7805;49.554;7.632;2023-05-07T00:36:48;15.10;99.90
15413;DHT22;7805;49.554;7.632;2023-05-07T00:39:13;15.10;99.90
15413;DHT22;7805;49.554;7.632;2023-05-07T00:41:39;15.00;99.90
15413;DHT22;7805;49.554;7.632;2023-05-07T00:44:04;14.90;99.90
15413;DHT22;7805;49.554;7.632;2023-05-07T00:46:31;14.90;99.90
15413;DHT22;7805;49.554;7.632;2023-05-07T00:48:58;14.80;99.90
15413;DHT22;7805;49.554;7.632;2023-05-07T00:51:25;14.70;99.90
15413;DHT22;7805;49.554;7.632;2023-05-07T00:53:53;14.60;99.90
15413;DHT22;7805;49.554;7.632;2023-05-07T00:56:21;14.60;99.90
15413;DHT22;7805;49.554;7.632;2023-05-07T00:58:48;14.60;99.90
15413;DHT22;7805;49.554;7.632;2023-05-07T01:01:14;14.60;99.90
15413;DHT22;7805;49.554;7.632;2023-05-07T01:03:42;14.60;99.90
15413;DHT22;7805;49.554;7.632;2023-05-07T01:06:08;14.60;99.90
15413;DHT22;7805;49.554;7.632;2023-05-07T01:08:37;14.50;99.90
15413;DHT22;7805;49.554;7.632;2023-05-07T01:11:05;14.50;99.90
15413;DHT22;7805;49.554;7.632;2023-05-07T01:13:31;14.50;99.90
15413;DHT22;7805;49.554;7.632;2023-05-07T01:15:57;14.40;99.90
15413;DHT22;7805;49.554;7.632;2023-05-07T01:18:23;14.40;99.90
15413;DHT22;7805;49.554;7.632;2023-05-07T01:20:49;14.40;99.90
15413;DHT22;7805;49.554;7.632;2023-05-07T01:23:15;14.30;99.90
15413;DHT22;7805;49.554;7.632;2023-05-07T01:25:41;14.20;99.90
15413;DHT22;7805;49.554;7.632;2023-05-07T01:28:06;14.20;99.90
15413;DHT22;7805;49.554;7.632;2023-05-07T01:30:33;14.10;99.90
15413;DHT22;7805;49.554;7.632;2023-05-07T01:33:11;14.10;99.90
15413;DHT22;7805;49.554;7.632;2023-05-07T01:35:41;14.10;99.90
15413;DHT22;7805;49.554;7.632;2023-05-07T01:38:09;14.10;99.90
15413;DHT22;7805;49.554;7.632;2023-05-07T01:40:34;14.10;99.90
15413;DHT22;7805;49.554;7.632;2023-05-07T01:43:02;14.10;99.90
15413;DHT22;7805;49.554;7.632;2023-05-07T01:45:27;14.00;99.90
15413;DHT22;7805;49.554;7.632;2023-05-07T01:47:53;14.00;99.90
15413;DHT22;7805;49.554;7.632;2023-05-07T01:50:20;14.00;99.90
15413;DHT22;7805;49.554;7.632;2023-05-07T01:52:47;13.90;99.90
15413;DHT22;7805;49.554;7.632;2023-05-07T01:55:12;13.90;99.90
15413;DHT22;7805;49.554;7.632;2023-05-07T01:57:38;13.80;99.90
15413;DHT22;7805;49.554;7.632;2023-05-07T02:00:04;13.80;99.90
15413;DHT22;7805;49.554;7.632;2023-05-07T02:02:30;13.80;99.90
15413;DHT22;7805;49.554;7.632;2023-05-07T02:04:56;13.80;99.90
15413;DHT22;7805;49.554;7.632;2023-05-07T02:07:22;13.80;99.90
15413;DHT22;7805;49.554;7.632;2023-05-07T02:09:47;13.80;99.90
15413;DHT22;7805;49.554;7.632;2023-05-07T02:12:13;13.70;99.90
15413;DHT22;7805;49.554;7.632;2023-05-07T02:14:39;13.80;99.90
15413;DHT22;7805;49.554;7.632;2023-05-07T02:17:04;13.70;99.90
15413;DHT22;7805;49.554;7.632;2023-05-07T02:19:30;13.70;99.90
15413;DHT22;7805;49.554;7.632;2023-05-07T02:21:55;13.70;99.90
15413;DHT22;7805;49.554;7.632;2023-05-07T02:24:21;13.60;99.90
15413;DHT22;7805;49.554;7.632;2023-05-07T02:26:47;13.60;99.90
15413;DHT22;7805;49.554;7.632;2023-05-07T02:29:12;13.60;99.90
15413;DHT22;7805;49.554;7.632;2023-05-07T02:31:38;13.60;99.90
15413;DHT22;7805;49.554;7.632;2023-05-07T02:34:03;13.60;99.90
15413;DHT22;7805;49.554;7.632;2023-05-07T02:36:29;13.60;99.90
15413;DHT22;7805;49.554;7.632;2023-05-07T02:38:55;13.50;99.90
15413;DHT22;7805;49.554;7.632;2023-05-07T02:41:20;13.50;99.90
15413;DHT22;7805;49.554;7.632;2023-05-07T02:43:46;13.50;99.90
15413;DHT22;7805;49.554;7.632;2023-05-07T02:46:12;13.40;99.90
15413;DHT22;7805;49.554;7.632;2023-05-07T02:48:37;13.50;99.90
15413;DHT22;7805;49.554;7.632;2023-05-07T02:51:03;13.50;99.90
15413;DHT22;7805;49.554;7.632;2023-05-07T02:53:29;13.50;99.90
15413;DHT22;7805;49.554;7.632;2023-05-07T02:55:59;13.50;99.90
15413;DHT22;7805;49.554;7.632;2023-05-07T02:58:25;13.40;99.90
15413;DHT22;7805;49.554;7.632;2023-05-07T03:00:52;13.30;99.90
15413;DHT22;7805;49.554;7.632;2023-05-07T03:03:17;13.30;99.90
15413;DHT22;7805;49.554;7.632;2023-05-07T03:05:43;13.30;99.90
15413;DHT22;7805;49.554;7.632;2023-05-07T03:08:09;13.30;99.90
15413;DHT22;7805;49.554;7.632;2023-05-07T03:10:36;13.20;99.90
15413;DHT22;7805;49.554;7.632;2023-05-07T03:13:02;13.20;99.90
15413;DHT22;7805;49.554;7.632;2023-05-07T03:15:28;13.10;99.90
15413;DHT22;7805;49.554;7.632;2023-05-07T03:17:53;13.00;99.90
15413;DHT22;7805;49.554;7.632;2023-05-07T03:20:19;13.00;99.90
15413;DHT22;7805;49.554;7.632;2023-05-07T03:22:45;13.00;99.90
15413;DHT22;7805;49.554;7.632;2023-05-07T03:25:10;13.10;99.90
15413;DHT22;7805;49.554;7.632;2023-05-07T03:27:36;13.00;99.90
15413;DHT22;7805;49.554;7.632;2023-05-07T03:30:02;13.00;99.90
15413;DHT22;7805;49.554;7.632;2023-05-07T03:32:28;12.90;99.90
15413;DHT22;7805;49.554;7.632;2023-05-07T03:34:56;13.00;99.90
15413;DHT22;7805;49.554;7.632;2023-05-07T03:37:22;13.00;99.90
15413;DHT22;7805;49.554;7.632;2023-05-07T03:39:47;12.90;99.90
15413;DHT22;7805;49.554;7.632;2023-05-07T03:42:13;12.90;99.90
15413;DHT22;7805;49.554;7.632;2023-05-07T03:44:39;12.90;99.90
15413;DHT22;7805;49.554;7.632;2023-05-07T03:47:04;12.90;99.90
15413;DHT22;7805;49.554;7.632;2023-05-07T03:49:30;12.80;99.90
15413;DHT22;7805;49.554;7.632;2023-05-07T03:51:55;12.80;99.90
15413;DHT22;7805;49.554;7.632;2023-05-07T03:54:21;12.90;99.90
15413;DHT22;7805;49.554;7.632;2023-05-07T03:56:47;12.80;99.90
15413;DHT22;7805;49.554;7.632;2023-05-07T03:59:13;12.80;99.90
15413;DHT22;7805;49.554;7.632;2023-05-07T04:01:39;12.80;99.90
15413;DHT22;7805;49.554;7.632;2023-05-07T04:04:04;12.80;99.90
15413;DHT22;7805;49.554;7.632;2023-05-07T04:06:30;12.70;99.90
15413;DHT22;7805;49.554;7.632;2023-05-07T04:08:56;12.80;99.90
15413;DHT22;7805;49.554;7.632;2023-05-07T04:11:22;12.80;99.90
15413;DHT22;7805;49.554;7.632;2023-05-07T04:13:47;12.70;99.90
15413;DHT22;7805;49.554;7.632;2023-05-07T04:16:13;12.70;99.90
15413;DHT22;7805;49.554;7.632;2023-05-07T04:18:39;12.60;99.90
15413;DHT22;7805;49.554;7.632;2023-05-07T04:21:05;12.60;99.90
15413;DHT22;7805;49.554;7.632;2023-05-07T04:23:30;12.50;99.90
15413;DHT22;7805;49.554;7.632;2023-05-07T04:25:56;12.60;99.90
15413;DHT22;7805;49.554;7.632;2023-05-07T04:28:23;12.60;99.90
15413;DHT22;7805;49.554;7.632;2023-05-07T04:30:48;12.70;99.90
15413;DHT22;7805;49.554;7.632;2023-05-07T04:33:14;12.70;99.90
15413;DHT22;7805;49.554;7.632;2023-05-07T04:35:42;12.70;99.90
15413;DHT22;7805;49.554;7.632;2023-05-07T04:38:07;12.70;99.90
15413;DHT22;7805;49.554;7.632;2023-05-07T04:40:35;12.70;99.90
15413;DHT22;7805;49.554;7.632;2023-05-07T04:43:00;12.70;99.90
15413;DHT22;7805;49.554;7.632;2023-05-07T04:45:26;12.70;99.90
15413;DHT22;7805;49.554;7.632;2023-05-07T04:47:52;12.80;99.90
15413;DHT22;7805;49.554;7.632;2023-05-07T04:50:17;12.80;99.90
15413;DHT22;7805;49.554;7.632;2023-05-07T04:52:45;12.80;99.90
15413;DHT22;7805;49.554;7.632;2023-05-07T04:55:10;12.90;99.90
15413;DHT22;7805;49.554;7.632;2023-05-07T04:57:36;12.90;99.90
15413;DHT22;7805;49.554;7.632;2023-05-07T05:00:03;13.00;99.90
15413;DHT22;7805;49.554;7.632;2023-05-07T05:02:29;13.00;99.90
15413;DHT22;7805;49.554;7.632;2023-05-07T05:04:55;13.10;99.90
15413;DHT22;7805;49.554;7.632;2023-05-07T05:07:20;13.20;99.90
15413;DHT22;7805;49.554;7.632;2023-05-07T05:09:46;13.20;99.90
15413;DHT22;7805;49.554;7.632;2023-05-07T05:12:11;13.20;99.90
15413;DHT22;7805;49.554;7.632;2023-05-07T05:14:37;13.30;99.90
15413;DHT22;7805;49.554;7.632;2023-05-07T05:17:02;13.30;99.90
15413;DHT22;7805;49.554;7.632;2023-05-07T05:19:28;13.40;99.90
15413;DHT22;7805;49.554;7.632;2023-05-07T05:21:54;13.40;99.90
15413;DHT22;7805;49.554;7.632;2023-05-07T05:24:19;13.40;99.90
15413;DHT22;7805;49.554;7.632;2023-05-07T05:26:45;13.50;99.90
15413;DHT22;7805;49.554;7.632;2023-05-07T05:29:11;13.60;99.90
15413;DHT22;7805;49.554;7.632;2023-05-07T05:31:36;13.60;99.90
15413;DHT22;7805;49.554;7.632;2023-05-07T05:34:02;13.70;99.90
15413;DHT22;7805;49.554;7.632;2023-05-07T05:36:28;13.70;99.90
15413;DHT22;7805;49.554;7.632;2023-05-07T05:38:55;13.70;99.90
15413;DHT22;7805;49.554;7.632;2023-05-07T05:41:21;13.90;99.90
15413;DHT22;7805;49.554;7.632;2023-05-07T05:43:46;13.90;99.90
15413;DHT22;7805;49.554;7.632;2023-05-07T05:46:12;14.00;99.90
15413;DHT22;7805;49.554;7.632;2023-05-07T05:48:38;14.00;99.90
15413;DHT22;7805;49.554;7.632;2023-05-07T05:51:03;14.10;99.90
15413;DHT22;7805;49.554;7.632;2023-05-07T05:53:29;14.10;99.90
15413;DHT22;7805;49.554;7.632;2023-05-07T05:55:54;14.20;99.90
15413;DHT22;7805;49.554;7.632;2023-05-07T05:58:20;14.30;99.90
15413;DHT22;7805;49.554;7.632;2023-05-07T06:00:46;14.30;99.90
15413;DHT22;7805;49.554;7.632;2023-05-07T06:03:13;14.40;99.90
15413;DHT22;7805;49.554;7.632;2023-05-07T06:05:39;14.40;99.90
15413;DHT22;7805;49.554;7.632;2023-05-07T06:08:04;14.40;99.90
15413;DHT22;7805;49.554;7.632;2023-05-07T06:10:30;14.50;99.90
15413;DHT22;7805;49.554;7.632;2023-05-07T06:12:56;14.60;99.90
15413;DHT22;7805;49.554;7.632;2023-05-07T06:15:21;14.70;99.90
15413;DHT22;7805;49.554;7.632;2023-05-07T06:17:47;14.80;99.90
15413;DHT22;7805;49.554;7.632;2023-05-07T06:20:12;15.00;99.90
15413;DHT22;7805;49.554;7.632;2023-05-07T06:22:38;15.10;99.90
15413;DHT22;7805;49.554;7.632;2023-05-07T06:25:03;15.10;99.90
15413;DHT22;7805;49.554;7.632;2023-05-07T06:27:29;15.10;99.90
15413;DHT22;7805;49.554;7.632;2023-05-07T06:29:55;15.20;99.90
15413;DHT22;7805;49.554;7.632;2023-05-07T06:32:20;15.30;99.90
15413;DHT22;7805;49.554;7.632;2023-05-07T06:34:46;15.30;99.90
15413;DHT22;7805;49.554;7.632;2023-05-07T06:37:11;15.30;99.90
15413;DHT22;7805;49.554;7.632;2023-05-07T06:39:37;15.30;99.90
15413;DHT22;7805;49.554;7.632;2023-05-07T06:42:03;15.50;99.90
15413;DHT22;7805;49.554;7.632;2023-05-07T06:44:30;15.60;99.90
15413;DHT22;7805;49.554;7.632;2023-05-07T06:46:56;15.70;99.90
15413;DHT22;7805;49.554;7.632;2023-05-07T06:49:21;15.80;99.90
15413;DHT22;7805;49.554;7.632;2023-05-07T06:51:47;16.00;99.90
15413;DHT22;7805;49.554;7.632;2023-05-07T06:54:12;16.20;99.90
15413;DHT22;7805;49.554;7.632;2023-05-07T06:56:38;16.20;99.90
15413;DHT22;7805;49.554;7.632;2023-05-07T06:59:04;16.40;99.90
15413;DHT22;7805;49.554;7.632;2023-05-07T07:01:29;16.50;99.90
15413;DHT22;7805;49.554;7.632;2023-05-07T07:03:55;16.60;99.90
15413;DHT22;7805;49.554;7.632;2023-05-07T07:06:20;16.60;99.90
15413;DHT22;7805;49.554;7.632;2023-05-07T07:08:46;16.70;99.90
15413;DHT22;7805;49.554;7.632;2023-05-07T07:11:12;16.80;99.90
15413;DHT22;7805;49.554;7.632;2023-05-07T07:13:37;16.90;99.90
15413;DHT22;7805;49.554;7.632;2023-05-07T07:16:03;17.00;99.90
15413;DHT22;7805;49.554;7.632;2023-05-07T07:18:29;17.10;99.90
15413;DHT22;7805;49.554;7.632;2023-05-07T07:20:54;17.20;99.90
15413;DHT22;7805;49.554;7.632;2023-05-07T07:23:20;17.20;99.90
15413;DHT22;7805;49.554;7.632;2023-05-07T07:25:46;17.20;99.90
15413;DHT22;7805;49.554;7.632;2023-05-07T07:28:12;17.20;99.90
15413;DHT22;7805;49.554;7.632;2023-05-07T07:30:38;17.40;99.90
15413;DHT22;7805;49.554;7.632;2023-05-07T07:33:04;17.60;99.90
15413;DHT22;7805;49.554;7.632;2023-05-07T07:35:33;17.80;99.90
15413;DHT22;7805;49.554;7.632;2023-05-07T07:37:59;17.90;99.90
15413;DHT22;7805;49.554;7.632;2023-05-07T07:40:25;18.00;99.90
15413;DHT22;7805;49.554;7.632;2023-05-07T07:42:54;18.20;99.90
15413;DHT22;7805;49.554;7.632;2023-05-07T07:45:20;18.20;99.90
15413;DHT22;7805;49.554;7.632;2023-05-07T07:47:45;18.40;99.90
15413;DHT22;7805;49.554;7.632;2023-05-07T07:50:11;18.50;99.90
15413;DHT22;7805;49.554;7.632;2023-05-07T07:52:36;18.70;99.90
15413;DHT22;7805;49.554;7.632;2023-05-07T07:55:02;18.80;99.90
15413;DHT22;7805;49.554;7.632;2023-05-07T07:57:28;18.90;99.90
15413;DHT22;7805;49.554;7.632;2023-05-07T07:59:54;19.20;99.90
15413;DHT22;7805;49.554;7.632;2023-05-07T08:02:19;19.20;99.90
15413;DHT22;7805;49.554;7.632;2023-05-07T08:04:45;19.20;99.90
15413;DHT22;7805;49.554;7.632;2023-05-07T08:07:11;19.30;99.90
15413;DHT22;7805;49.554;7.632;2023-05-07T08:09:37;19.40;99.90
15413;DHT22;7805;49.554;7.632;2023-05-07T08:12:03;19.10;99.90
15413;DHT22;7805;49.554;7.632;2023-05-07T08:14:29;19.10;99.90
15413;DHT22;7805;49.554;7.632;2023-05-07T08:16:55;19.00;99.90
15413;DHT22;7805;49.554;7.632;2023-05-07T08:19:21;19.20;99.90
15413;DHT22;7805;49.554;7.632;2023-05-07T08:21:47;19.40;99.90
15413;DHT22;7805;49.554;7.632;2023-05-07T08:24:13;19.60;99.90
15413;DHT22;7805;49.554;7.632;2023-05-07T08:26:39;19.70;99.90
15413;DHT22;7805;49.554;7.632;2023-05-07T08:29:05;19.90;99.90
15413;DHT22;7805;49.554;7.632;2023-05-07T08:31:31;19.90;99.90
15413;DHT22;7805;49.554;7.632;2023-05-07T08:33:57;19.80;99.90
15413;DHT22;7805;49.554;7.632;2023-05-07T08:36:23;19.90;99.90
15413;DHT22;7805;49.554;7.632;2023-05-07T08:38:49;19.80;99.90
15413;DHT22;7805;49.554;7.632;2023-05-07T08:41:15;19.80;99.90
15413;DHT22;7805;49.554;7.632;2023-05-07T08:43:41;19.80;99.90
15413;DHT22;7805;49.554;7.632;2023-05-07T08:46:09;19.70;99.90
15413;DHT22;7805;49.554;7.632;2023-05-07T08:48:35;19.60;99.90
15413;DHT22;7805;49.554;7.632;2023-05-07T08:51:01;19.90;99.90
15413;DHT22;7805;49.554;7.632;2023-05-07T08:53:26;19.90;99.90
15413;DHT22;7805;49.554;7.632;2023-05-07T08:55:53;20.10;99.90
15413;DHT22;7805;49.554;7.632;2023-05-07T08:58:18;20.40;99.90
15413;DHT22;7805;49.554;7.632;2023-05-07T09:00:44;20.50;99.90
15413;DHT22;7805;49.554;7.632;2023-05-07T09:03:10;20.60;99.90
15413;DHT22;7805;49.554;7.632;2023-05-07T09:05:39;20.70;99.90
15413;DHT22;7805;49.554;7.632;2023-05-07T09:08:07;20.50;99.90
15413;DHT22;7805;49.554;7.632;2023-05-07T09:10:33;20.40;99.90
15413;DHT22;7805;49.554;7.632;2023-05-07T09:12:59;20.70;99.90
15413;DHT22;7805;49.554;7.632;2023-05-07T09:15:25;21.00;99.90
15413;DHT22;7805;49.554;7.632;2023-05-07T09:17:51;21.20;99.90
15413;DHT22;7805;49.554;7.632;2023-05-07T09:20:17;21.30;99.90
15413;DHT22;7805;49.554;7.632;2023-05-07T09:22:42;21.40;99.90
15413;DHT22;7805;49.554;7.632;2023-05-07T09:25:09;21.70;99.90
15413;DHT22;7805;49.554;7.632;2023-05-07T09:27:35;21.80;99.90
15413;DHT22;7805;49.554;7.632;2023-05-07T09:30:07;21.70;99.90
15413;DHT22;7805;49.554;7.632;2023-05-07T09:32:35;21.60;99.90
15413;DHT22;7805;49.554;7.632;2023-05-07T09:37:31;22.00;99.90
15413;DHT22;7805;49.554;7.632;2023-05-07T09:39:58;22.10;99.90
15413;DHT22;7805;49.554;7.632;2023-05-07T09:42:26;21.80;99.90
15413;DHT22;7805;49.554;7.632;2023-05-07T09:44:52;22.10;99.90
15413;DHT22;7805;49.554;7.632;2023-05-07T09:47:24;22.40;99.90
15413;DHT22;7805;49.554;7.632;2023-05-07T09:49:50;22.60;99.90
15413;DHT22;7805;49.554;7.632;2023-05-07T09:52:18;22.90;99.90
15413;DHT22;7805;49.554;7.632;2023-05-07T09:54:45;23.00;99.90
15413;DHT22;7805;49.554;7.632;2023-05-07T09:57:13;22.80;99.90
15413;DHT22;7805;49.554;7.632;2023-05-07T09:59:43;22.90;99.90
15413;DHT22;7805;49.554;7.632;2023-05-07T10:02:09;23.30;99.90
15413;DHT22;7805;49.554;7.632;2023-05-07T10:04:38;23.40;99.90
15413;DHT22;7805;49.554;7.632;2023-05-07T10:07:05;23.70;99.60
15413;DHT22;7805;49.554;7.632;2023-05-07T10:09:32;23.80;99.00
15413;DHT22;7805;49.554;7.632;2023-05-07T10:11:58;24.10;98.70
15413;DHT22;7805;49.554;7.632;2023-05-07T10:14:25;24.10;98.00
15413;DHT22;7805;49.554;7.632;2023-05-07T10:16:53;24.10;97.80
15413;DHT22;7805;49.554;7.632;2023-05-07T10:19:20;24.10;97.40
15413;DHT22;7805;49.554;7.632;2023-05-07T10:21:59;23.70;97.40
15413;DHT22;7805;49.554;7.632;2023-05-07T10:24:32;23.70;97.50
15413;DHT22;7805;49.554;7.632;2023-05-07T10:27:00;24.10;97.20
15413;DHT22;7805;49.554;7.632;2023-05-07T10:29:48;24.30;97.10
15413;DHT22;7805;49.554;7.632;2023-05-07T10:32:39;24.30;96.60
15413;DHT22;7805;49.554;7.632;2023-05-07T10:35:13;24.30;96.90
15413;DHT22;7805;49.554;7.632;2023-05-07T10:37:40;24.60;97.00
15413;DHT22;7805;49.554;7.632;2023-05-07T10:40:07;24.80;95.70
15413;DHT22;7805;49.554;7.632;2023-05-07T10:42:33;24.90;95.00
15413;DHT22;7805;49.554;7.632;2023-05-07T10:45:14;24.90;95.40
15413;DHT22;7805;49.554;7.632;2023-05-07T10:50:35;24.90;94.60
15413;DHT22;7805;49.554;7.632;2023-05-07T10:55:43;25.40;94.10
15413;DHT22;7805;49.554;7.632;2023-05-07T11:00:50;25.10;93.80
15413;DHT22;7805;49.554;7.632;2023-05-07T11:03:16;25.10;94.10
15413;DHT22;7805;49.554;7.632;2023-05-07T11:05:42;25.30;94.00
15413;DHT22;7805;49.554;7.632;2023-05-07T11:08:08;25.60;93.70
15413;DHT22;7805;49.554;7.632;2023-05-07T11:10:54;24.70;92.60
15413;DHT22;7805;49.554;7.632;2023-05-07T11:13:43;25.90;91.60
15413;DHT22;7805;49.554;7.632;2023-05-07T11:16:20;26.00;91.30
15413;DHT22;7805;49.554;7.632;2023-05-07T11:18:51;26.00;91.70
15413;DHT22;7805;49.554;7.632;2023-05-07T11:23:59;26.30;90.80
15413;DHT22;7805;49.554;7.632;2023-05-07T11:26:25;26.30;91.50
15413;DHT22;7805;49.554;7.632;2023-05-07T11:28:52;26.50;91.40
15413;DHT22;7805;49.554;7.632;2023-05-07T11:31:25;26.50;90.60
15413;DHT22;7805;49.554;7.632;2023-05-07T11:33:52;26.40;90.30
15413;DHT22;7805;49.554;7.632;2023-05-07T11:36:18;26.40;91.20
15413;DHT22;7805;49.554;7.632;2023-05-07T11:38:44;26.90;91.80
15413;DHT22;7805;49.554;7.632;2023-05-07T11:41:10;27.20;90.70
15413;DHT22;7805;49.554;7.632;2023-05-07T11:43:35;27.20;90.30
15413;DHT22;7805;49.554;7.632;2023-05-07T11:46:10;27.20;91.00
15413;DHT22;7805;49.554;7.632;2023-05-07T11:48:36;27.20;90.80
15413;DHT22;7805;49.554;7.632;2023-05-07T11:51:04;26.80;91.30
15413;DHT22;7805;49.554;7.632;2023-05-07T11:53:40;26.70;91.40
15413;DHT22;7805;49.554;7.632;2023-05-07T11:56:07;26.90;91.40
15413;DHT22;7805;49.554;7.632;2023-05-07T11:58:33;26.80;91.30
15413;DHT22;7805;49.554;7.632;2023-05-07T12:00:58;26.70;91.40
15413;DHT22;7805;49.554;7.632;2023-05-07T12:03:24;26.80;91.40
15413;DHT22;7805;49.554;7.632;2023-05-07T12:05:49;26.80;91.50
15413;DHT22;7805;49.554;7.632;2023-05-07T12:08:16;26.80;91.50
15413;DHT22;7805;49.554;7.632;2023-05-07T12:10:42;27.00;91.60
15413;DHT22;7805;49.554;7.632;2023-05-07T12:13:18;27.20;91.30
15413;DHT22;7805;49.554;7.632;2023-05-07T12:15:45;27.30;90.80
15413;DHT22;7805;49.554;7.632;2023-05-07T12:18:13;27.10;90.40
15413;DHT22;7805;49.554;7.632;2023-05-07T12:20:40;27.10;90.30
15413;DHT22;7805;49.554;7.632;2023-05-07T12:23:06;26.90;90.40
15413;DHT22;7805;49.554;7.632;2023-05-07T12:25:36;26.50;90.60
15413;DHT22;7805;49.554;7.632;2023-05-07T12:28:02;26.40;91.00
15413;DHT22;7805;49.554;7.632;2023-05-07T12:30:31;26.50;91.10
15413;DHT22;7805;49.554;7.632;2023-05-07T12:32:57;26.60;90.70
15413;DHT22;7805;49.554;7.632;2023-05-07T12:35:32;26.50;90.50
15413;DHT22;7805;49.554;7.632;2023-05-07T12:38:01;27.30;91.20
15413;DHT22;7805;49.554;7.632;2023-05-07T12:40:41;25.90;91.50
15413;DHT22;7805;49.554;7.632;2023-05-07T12:43:07;25.80;91.70
15413;DHT22;7805;49.554;7.632;2023-05-07T12:45:37;25.60;91.90
15413;DHT22;7805;49.554;7.632;2023-05-07T12:48:04;25.70;92.20
15413;DHT22;7805;49.554;7.632;2023-05-07T12:50:33;25.50;93.30
15413;DHT22;7805;49.554;7.632;2023-05-07T12:52:59;25.30;95.90
15413;DHT22;7805;49.554;7.632;2023-05-07T12:55:24;25.20;97.80
15413;DHT22;7805;49.554;7.632;2023-05-07T12:57:51;25.00;99.90
15413;DHT22;7805;49.554;7.632;2023-05-07T13:00:32;24.80;99.90
15413;DHT22;7805;49.554;7.632;2023-05-07T13:02:58;24.60;99.90
15413;DHT22;7805;49.554;7.632;2023-05-07T13:05:24;24.20;99.90
15413;DHT22;7805;49.554;7.632;2023-05-07T13:07:56;24.00;99.90
15413;DHT22;7805;49.554;7.632;2023-05-07T13:10:23;23.70;99.90
15413;DHT22;7805;49.554;7.632;2023-05-07T13:12:49;23.30;99.90
15413;DHT22;7805;49.554;7.632;2023-05-07T13:15:15;23.20;99.90
15413;DHT22;7805;49.554;7.632;2023-05-07T13:17:41;22.90;99.90
15413;DHT22;7805;49.554;7.632;2023-05-07T13:20:07;22.80;99.90
15413;DHT22;7805;49.554;7.632;2023-05-07T13:22:33;22.70;99.90
15413;DHT22;7805;49.554;7.632;2023-05-07T13:24:59;22.80;99.90
15413;DHT22;7805;49.554;7.632;2023-05-07T13:27:24;22.70;99.90
15413;DHT22;7805;49.554;7.632;2023-05-07T13:29:50;22.70;99.90
15413;DHT22;7805;49.554;7.632;2023-05-07T13:32:16;22.50;99.90
15413;DHT22;7805;49.554;7.632;2023-05-07T13:34:41;22.30;99.90
15413;DHT22;7805;49.554;7.632;2023-05-07T13:37:07;22.10;99.90
15413;DHT22;7805;49.554;7.632;2023-05-07T13:39:33;22.10;99.90
15413;DHT22;7805;49.554;7.632;2023-05-07T13:41:58;21.80;99.90
15413;DHT22;7805;49.554;7.632;2023-05-07T13:44:24;21.90;99.90
15413;DHT22;7805;49.554;7.632;2023-05-07T13:46:49;21.60;99.90
15413;DHT22;7805;49.554;7.632;2023-05-07T13:49:15;21.40;99.90
15413;DHT22;7805;49.554;7.632;2023-05-07T13:51:41;21.30;99.90
15413;DHT22;7805;49.554;7.632;2023-05-07T13:54:06;21.10;99.90
15413;DHT22;7805;49.554;7.632;2023-05-07T13:56:32;21.00;99.90
15413;DHT22;7805;49.554;7.632;2023-05-07T13:58:58;21.00;99.90
15413;DHT22;7805;49.554;7.632;2023-05-07T14:01:24;20.00;99.90
15413;DHT22;7805;49.554;7.632;2023-05-07T14:03:49;20.60;99.90
15413;DHT22;7805;49.554;7.632;2023-05-07T14:06:15;20.10;99.90
15413;DHT22;7805;49.554;7.632;2023-05-07T14:08:40;19.90;99.90
15413;DHT22;7805;49.554;7.632;2023-05-07T14:11:06;19.80;99.90
15413;DHT22;7805;49.554;7.632;2023-05-07T14:13:31;19.80;99.90
15413;DHT22;7805;49.554;7.632;2023-05-07T14:15:57;19.80;99.90
15413;DHT22;7805;49.554;7.632;2023-05-07T14:18:23;19.90;99.90
15413;DHT22;7805;49.554;7.632;2023-05-07T14:20:49;20.00;99.90
15413;DHT22;7805;49.554;7.632;2023-05-07T14:23:15;20.10;99.90
15413;DHT22;7805;49.554;7.632;2023-05-07T14:25:40;20.30;99.90
15413;DHT22;7805;49.554;7.632;2023-05-07T14:28:06;20.20;99.90
15413;DHT22;7805;49.554;7.632;2023-05-07T14:30:32;20.10;99.90
15413;DHT22;7805;49.554;7.632;2023-05-07T14:32:57;19.80;99.90
15413;DHT22;7805;49.554;7.632;2023-05-07T14:35:23;19.80;99.90
15413;DHT22;7805;49.554;7.632;2023-05-07T14:37:48;19.80;99.90
15413;DHT22;7805;49.554;7.632;2023-05-07T14:40:14;19.80;99.90
15413;DHT22;7805;49.554;7.632;2023-05-07T14:42:40;19.70;99.90
15413;DHT22;7805;49.554;7.632;2023-05-07T14:45:06;19.70;99.90
15413;DHT22;7805;49.554;7.632;2023-05-07T14:47:32;19.70;99.90
15413;DHT22;7805;49.554;7.632;2023-05-07T14:49:57;19.60;99.90
15413;DHT22;7805;49.554;7.632;2023-05-07T14:52:23;19.80;99.90
15413;DHT22;7805;49.554;7.632;2023-05-07T14:54:49;19.40;99.90
15413;DHT22;7805;49.554;7.632;2023-05-07T14:57:15;19.40;99.90
15413;DHT22;7805;49.554;7.632;2023-05-07T14:59:43;19.40;99.90
15413;DHT22;7805;49.554;7.632;2023-05-07T15:02:11;19.40;99.90
15413;DHT22;7805;49.554;7.632;2023-05-07T15:04:36;19.60;99.90
15413;DHT22;7805;49.554;7.632;2023-05-07T15:07:03;21.20;99.90
15413;DHT22;7805;49.554;7.632;2023-05-07T15:09:29;19.30;99.90
15413;DHT22;7805;49.554;7.632;2023-05-07T15:11:54;19.20;99.90
15413;DHT22;7805;49.554;7.632;2023-05-07T15:14:20;19.20;99.90
15413;DHT22;7805;49.554;7.632;2023-05-07T15:16:50;19.10;99.90
15413;DHT22;7805;49.554;7.632;2023-05-07T15:19:15;18.90;99.90
15413;DHT22;7805;49.554;7.632;2023-05-07T15:21:42;18.80;99.90
15413;DHT22;7805;49.554;7.632;2023-05-07T15:24:08;18.80;99.90
15413;DHT22;7805;49.554;7.632;2023-05-07T15:26:34;18.80;99.90
15413;DHT22;7805;49.554;7.632;2023-05-07T15:28:59;18.70;99.90
15413;DHT22;7805;49.554;7.632;2023-05-07T15:31:25;18.70;99.90
15413;DHT22;7805;49.554;7.632;2023-05-07T15:33:50;18.70;99.90
15413;DHT22;7805;49.554;7.632;2023-05-07T15:36:17;18.70;99.90
15413;DHT22;7805;49.554;7.632;2023-05-07T15:38:43;18.80;99.90
15413;DHT22;7805;49.554;7.632;2023-05-07T15:41:09;19.00;99.90
15413;DHT22;7805;49.554;7.632;2023-05-07T15:43:44;19.00;99.90
15413;DHT22;7805;49.554;7.632;2023-05-07T15:46:11;19.00;99.90
15413;DHT22;7805;49.554;7.632;2023-05-07T15:48:36;19.20;99.90
15413;DHT22;7805;49.554;7.632;2023-05-07T15:51:02;19.20;99.90
15413;DHT22;7805;49.554;7.632;2023-05-07T15:53:29;19.00;99.90